createdAt,value
2019-05-05T00:02:20.780Z,59.90
2019-05-05T00:05:08.606Z,60.40
2019-05-05T00:07:36.993Z,60.80
2019-05-05T00:10:09.165Z,60.60
2019-05-05T00:12:55.141Z,60.90
2019-05-05T00:15:31.500Z,61.60
2019-05-05T00:18:00.453Z,61.80
2019-05-05T00:20:29.246Z,61.40
2019-05-05T00:22:58.130Z,61.80
2019-05-05T00:25:26.885Z,62.00
2019-05-05T00:27:55.813Z,62.20
2019-05-05T00:30:26.502Z,62.70
2019-05-05T00:32:55.341Z,62.80
2019-05-05T00:35:25.249Z,62.80
2019-05-05T00:37:54.470Z,62.70
2019-05-05T00:40:24.805Z,63.10
2019-05-05T00:42:55.204Z,63.20
2019-05-05T00:45:25.293Z,63.10
2019-05-05T00:47:58.453Z,63.40
2019-05-05T00:50:27.295Z,63.90
2019-05-05T00:52:57.043Z,64.40
2019-05-05T00:55:24.989Z,64.40
2019-05-05T00:57:54.800Z,63.80
2019-05-05T01:00:31.087Z,64.90
2019-05-05T01:03:01.741Z,64.90
2019-05-05T01:05:49.083Z,65.20
2019-05-05T01:08:20.111Z,65.00
2019-05-05T01:10:49.834Z,65.00
2019-05-05T01:13:18.611Z,65.50
2019-05-05T01:15:47.447Z,66.20
2019-05-05T01:18:16.199Z,65.80
2019-05-05T01:20:45.035Z,66.20
2019-05-05T01:23:15.125Z,65.70
2019-05-05T01:25:45.531Z,66.00
2019-05-05T01:28:16.187Z,66.10
2019-05-05T01:30:46.632Z,66.20
2019-05-05T01:33:34.269Z,66.50
2019-05-05T01:36:04.595Z,66.00
2019-05-05T01:38:34.909Z,65.70
2019-05-05T01:41:11.357Z,65.70
2019-05-05T01:43:40.542Z,65.40
2019-05-05T01:46:09.633Z,65.10
2019-05-05T01:48:38.398Z,65.40
2019-05-05T01:51:07.250Z,65.20
2019-05-05T01:53:36.105Z,65.20
2019-05-05T01:56:05.082Z,65.10
2019-05-05T01:58:34.897Z,65.00
2019-05-05T02:01:04.992Z,65.50
2019-05-05T02:03:35.023Z,66.00
2019-05-05T02:06:05.213Z,66.00
2019-05-05T02:08:34.877Z,66.00
2019-05-05T02:11:05.195Z,65.90
2019-05-05T02:13:34.676Z,65.80
2019-05-05T02:16:05.646Z,65.60
2019-05-05T02:18:34.679Z,65.50
2019-05-05T02:21:05.870Z,65.80
2019-05-05T02:23:35.528Z,65.90
2019-05-05T02:26:05.533Z,65.70
2019-05-05T02:28:35.953Z,66.10
2019-05-05T02:31:25.543Z,66.70
2019-05-05T02:33:56.584Z,66.10
2019-05-05T02:36:25.830Z,65.90
2019-05-05T02:38:56.697Z,65.30
2019-05-05T02:41:25.654Z,64.90
2019-05-05T02:44:15.484Z,64.50
2019-05-05T02:46:48.871Z,66.10
2019-05-05T02:49:19.006Z,64.70
2019-05-05T02:51:48.764Z,65.40
2019-05-05T02:54:18.794Z,65.90
2019-05-05T02:56:49.787Z,65.60
2019-05-05T02:59:23.753Z,65.40
2019-05-05T03:02:05.204Z,65.70
2019-05-05T03:04:35.146Z,65.60
2019-05-05T03:07:05.970Z,64.60
2019-05-05T03:09:35.587Z,65.50
2019-05-05T03:12:04.979Z,65.40
2019-05-05T03:14:36.609Z,64.60
2019-05-05T03:17:10.770Z,64.10
2019-05-05T03:19:40.373Z,64.40
2019-05-05T03:22:09.227Z,64.20
2019-05-05T03:24:38.563Z,64.60
2019-05-05T03:27:08.257Z,63.60
2019-05-05T03:29:37.413Z,64.80
2019-05-05T03:32:11.269Z,64.80
2019-05-05T03:34:37.467Z,64.60
2019-05-05T03:37:06.681Z,63.20
2019-05-05T03:39:37.585Z,63.50
2019-05-05T03:42:20.542Z,63.50
2019-05-05T03:45:07.735Z,64.60
2019-05-05T03:47:37.450Z,65.30
2019-05-05T03:50:07.540Z,65.40
2019-05-05T03:52:38.600Z,64.90
2019-05-05T03:55:07.978Z,64.80
2019-05-05T03:57:36.920Z,64.40
2019-05-05T04:00:09.218Z,64.10
2019-05-05T04:02:45.562Z,63.50
2019-05-05T04:05:18.528Z,65.70
2019-05-05T04:07:47.554Z,63.10
2019-05-05T04:10:16.504Z,64.10
2019-05-05T04:12:47.240Z,63.10
2019-05-05T04:15:16.081Z,63.70
2019-05-05T04:18:03.970Z,64.10
2019-05-05T04:20:34.585Z,64.30
2019-05-05T04:23:03.826Z,63.80
2019-05-05T04:25:34.774Z,63.40
2019-05-05T04:28:04.425Z,64.80
2019-05-05T04:30:33.936Z,63.60
2019-05-05T04:33:03.794Z,64.60
2019-05-05T04:35:34.007Z,64.60
2019-05-05T04:38:04.730Z,64.80
2019-05-05T04:40:34.556Z,65.70
2019-05-05T04:43:03.997Z,66.60
2019-05-05T04:45:34.740Z,67.20
2019-05-05T04:48:07.587Z,67.50
2019-05-05T04:50:49.944Z,68.50
2019-05-05T04:53:20.426Z,69.90
2019-05-05T04:55:49.211Z,70.30
2019-05-05T04:58:17.983Z,71.40
2019-05-05T05:00:46.859Z,73.50
2019-05-05T05:03:34.461Z,74.50
2019-05-05T05:06:14.629Z,75.60
2019-05-05T05:08:44.303Z,78.70
2019-05-05T05:11:14.140Z,77.00
2019-05-05T05:13:44.048Z,78.40
2019-05-05T05:16:13.873Z,79.00
2019-05-05T05:18:44.626Z,80.10
2019-05-05T05:21:14.514Z,80.70
2019-05-05T05:23:44.394Z,82.00
2019-05-05T05:26:13.854Z,82.50
2019-05-05T05:28:44.769Z,80.80
2019-05-05T05:31:15.722Z,81.90
2019-05-05T05:34:04.429Z,83.20
2019-05-05T05:36:45.525Z,82.60
2019-05-05T05:39:15.843Z,82.10
2019-05-05T05:41:45.386Z,83.80
2019-05-05T05:44:19.506Z,82.90
2019-05-05T05:47:00.272Z,82.40
2019-05-05T05:49:32.168Z,82.20
2019-05-05T05:52:12.525Z,81.60
2019-05-05T05:54:33.920Z,82.00
2019-05-05T05:57:04.246Z,81.70
2019-05-05T05:59:34.030Z,81.60
2019-05-05T06:02:11.492Z,81.00
2019-05-05T06:04:34.652Z,81.40
2019-05-05T06:07:04.055Z,80.70
2019-05-05T06:09:34.940Z,81.30
2019-05-05T06:12:03.745Z,82.60
2019-05-05T06:14:34.152Z,80.90
2019-05-05T06:17:04.274Z,81.20
2019-05-05T06:19:33.828Z,82.30
2019-05-05T06:22:03.523Z,82.70
2019-05-05T06:24:34.400Z,82.90
2019-05-05T06:27:03.784Z,84.70
2019-05-05T06:29:34.475Z,83.70
2019-05-05T06:32:04.898Z,83.00
2019-05-05T06:34:33.942Z,82.70
2019-05-05T06:37:04.194Z,82.60
2019-05-05T06:39:33.608Z,82.60
2019-05-05T06:42:04.559Z,83.10
2019-05-05T06:44:35.162Z,83.50
2019-05-05T06:47:05.583Z,84.40
2019-05-05T06:49:34.658Z,83.60
2019-05-05T06:52:05.404Z,83.50
2019-05-05T06:54:34.789Z,82.90
2019-05-05T06:57:04.673Z,81.50
2019-05-05T06:59:35.001Z,83.00
2019-05-05T07:02:04.413Z,83.00
2019-05-05T07:04:33.962Z,83.10
2019-05-05T07:07:04.912Z,83.60
2019-05-05T07:09:33.742Z,82.50
2019-05-05T07:12:04.558Z,82.80
2019-05-05T07:14:34.040Z,83.20
2019-05-05T07:17:02.220Z,82.50
2019-05-05T07:19:30.976Z,81.80
2019-05-05T07:22:03.878Z,82.10
2019-05-05T07:24:30.227Z,82.30
2019-05-05T07:26:59.043Z,83.10
2019-05-05T07:29:27.873Z,82.30
2019-05-05T07:31:58.469Z,80.80
2019-05-05T07:34:28.958Z,82.10
2019-05-05T07:36:57.732Z,81.50
2019-05-05T07:39:28.517Z,81.30
2019-05-05T07:41:57.338Z,80.60
2019-05-05T07:44:29.493Z,81.90
2019-05-05T07:46:56.557Z,81.50
2019-05-05T07:49:25.324Z,80.80
2019-05-05T07:51:54.787Z,79.60
2019-05-05T07:54:23.774Z,79.40
2019-05-05T07:56:53.782Z,81.80
2019-05-05T07:59:23.803Z,79.40
2019-05-05T08:01:54.768Z,79.80
2019-05-05T08:04:24.279Z,79.00
2019-05-05T08:06:53.852Z,79.00
2019-05-05T08:09:24.944Z,79.90
2019-05-05T08:11:54.181Z,80.70
2019-05-05T08:14:24.361Z,81.20
2019-05-05T08:17:10.813Z,80.80
2019-05-05T08:19:44.309Z,81.00
2019-05-05T08:22:14.142Z,80.70
2019-05-05T08:24:56.801Z,82.20
2019-05-05T08:27:34.314Z,82.90
2019-05-05T08:30:05.439Z,82.80
2019-05-05T08:32:35.896Z,83.10
2019-05-05T08:35:08.208Z,82.60
2019-05-05T08:37:37.135Z,83.60
2019-05-05T08:40:07.657Z,83.70
2019-05-05T08:42:36.495Z,83.50
2019-05-05T08:45:06.516Z,82.60
2019-05-05T08:47:35.452Z,82.50
2019-05-05T08:50:06.175Z,82.80
2019-05-05T08:52:35.038Z,83.50
2019-05-05T08:55:04.792Z,84.50
2019-05-05T08:57:34.095Z,84.20
2019-05-05T09:00:04.990Z,83.00
2019-05-05T09:02:36.023Z,82.70
2019-05-05T09:05:06.460Z,81.60
2019-05-05T09:07:36.905Z,80.70
2019-05-05T09:10:06.545Z,81.10
2019-05-05T09:12:36.983Z,82.30
2019-05-05T09:15:09.043Z,82.80
2019-05-05T09:17:37.871Z,82.30
2019-05-05T09:20:07.029Z,84.20
2019-05-05T09:22:36.832Z,83.60
2019-05-05T09:25:13.540Z,82.60
2019-05-05T09:27:47.421Z,81.00
2019-05-05T09:30:18.164Z,83.30
2019-05-05T09:32:47.010Z,82.60
2019-05-05T09:35:15.839Z,81.40
2019-05-05T09:37:44.600Z,82.70
2019-05-05T09:40:13.889Z,81.70
2019-05-05T09:42:44.320Z,80.70
2019-05-05T09:45:14.135Z,81.80
2019-05-05T09:47:44.877Z,82.30
2019-05-05T09:50:14.350Z,82.50
2019-05-05T09:52:49.203Z,83.00
2019-05-05T09:55:18.046Z,82.60
2019-05-05T09:57:46.803Z,82.20
2019-05-05T10:00:16.134Z,80.70
2019-05-05T10:02:44.893Z,79.20
2019-05-05T10:05:14.682Z,75.20
2019-05-05T10:07:44.070Z,76.80
2019-05-05T10:10:13.879Z,76.90
2019-05-05T10:12:44.750Z,76.00
2019-05-05T10:15:14.063Z,76.20
2019-05-05T10:17:43.310Z,75.20
2019-05-05T10:20:14.389Z,76.30
2019-05-05T10:22:43.864Z,76.50
2019-05-05T10:25:34.175Z,73.70
2019-05-05T10:28:04.239Z,71.90
2019-05-05T10:30:33.080Z,67.40
2019-05-05T10:33:03.969Z,66.80
2019-05-05T10:35:34.265Z,65.00
2019-05-05T10:38:02.803Z,66.40
2019-05-05T10:40:37.028Z,67.70
2019-05-05T10:43:06.743Z,64.50
2019-05-05T10:45:35.576Z,64.80
2019-05-05T10:48:05.623Z,66.20
2019-05-05T10:50:34.637Z,65.30
2019-05-05T10:53:04.538Z,63.80
2019-05-05T10:55:34.675Z,62.50
2019-05-05T10:58:04.072Z,64.70
2019-05-05T11:00:44.608Z,64.70
2019-05-05T11:03:14.871Z,62.10
2019-05-05T11:05:45.004Z,64.30
2019-05-05T11:08:13.698Z,59.70
2019-05-05T11:10:44.925Z,59.80
2019-05-05T11:13:13.285Z,57.90
2019-05-05T11:15:44.555Z,59.50
2019-05-05T11:18:14.881Z,57.60
2019-05-05T11:20:44.864Z,57.30
2019-05-05T11:23:14.851Z,56.20
2019-05-05T11:25:44.256Z,58.10
2019-05-05T11:28:13.513Z,56.30
2019-05-05T11:30:45.433Z,59.00
2019-05-05T11:33:34.271Z,55.80
2019-05-05T11:36:16.215Z,54.70
2019-05-05T11:38:45.042Z,55.90
2019-05-05T11:41:15.705Z,56.60
2019-05-05T11:43:45.871Z,56.30
2019-05-05T11:46:15.150Z,58.10
2019-05-05T11:48:44.110Z,53.80
2019-05-05T11:51:14.874Z,56.20
2019-05-05T11:53:44.645Z,55.60
2019-05-05T11:56:14.464Z,55.50
2019-05-05T11:58:44.233Z,56.20
2019-05-05T12:01:14.371Z,57.60
2019-05-05T12:03:44.408Z,57.70
2019-05-05T12:06:14.757Z,57.30
2019-05-05T12:08:51.368Z,57.00
2019-05-05T12:11:20.191Z,57.00
2019-05-05T12:13:48.891Z,58.00
2019-05-05T12:16:19.290Z,55.40
2019-05-05T12:18:48.041Z,55.90
2019-05-05T12:21:16.882Z,56.20
2019-05-05T12:23:45.709Z,55.30
2019-05-05T12:26:31.198Z,54.90
2019-05-05T12:29:02.102Z,54.60
2019-05-05T12:31:33.954Z,55.00
2019-05-05T12:34:03.928Z,54.10
2019-05-05T12:36:34.206Z,53.70
2019-05-05T12:39:06.774Z,54.10
2019-05-05T12:41:35.300Z,53.00
2019-05-05T12:44:05.526Z,52.40
2019-05-05T12:46:38.885Z,55.40
2019-05-05T12:49:09.397Z,52.40
2019-05-05T12:51:38.186Z,53.90
2019-05-05T12:54:07.900Z,51.50
2019-05-05T12:56:37.799Z,51.80
2019-05-05T12:59:07.325Z,52.60
2019-05-05T13:01:37.715Z,53.70
2019-05-05T13:04:06.528Z,54.70
2019-05-05T13:06:35.453Z,56.80
2019-05-05T13:09:06.460Z,54.30
2019-05-05T13:11:36.109Z,54.30
2019-05-05T13:14:05.348Z,55.20
2019-05-05T13:16:34.287Z,55.80
2019-05-05T13:19:04.769Z,55.20
2019-05-05T13:21:36.713Z,55.20
2019-05-05T13:24:07.211Z,54.90
2019-05-05T13:26:43.160Z,54.10
2019-05-05T13:29:13.802Z,55.00
2019-05-05T13:31:44.202Z,55.80
2019-05-05T13:34:13.682Z,56.10
2019-05-05T13:36:44.116Z,55.60
2019-05-05T13:39:14.427Z,55.50
2019-05-05T13:41:44.837Z,55.40
2019-05-05T13:44:17.107Z,54.00
2019-05-05T13:46:46.038Z,54.90
2019-05-05T13:49:24.056Z,55.90
2019-05-05T13:51:54.050Z,56.60
2019-05-05T13:54:24.223Z,56.10
2019-05-05T13:56:53.397Z,55.20
2019-05-05T13:59:27.938Z,57.00
2019-05-05T14:01:56.695Z,56.10
2019-05-05T14:04:25.461Z,56.10
2019-05-05T14:06:55.914Z,56.40
2019-05-05T14:09:24.635Z,57.50
2019-05-05T14:11:53.631Z,56.20
2019-05-05T14:14:24.235Z,56.00
2019-05-05T14:16:53.770Z,55.20
2019-05-05T14:19:24.820Z,54.60
2019-05-05T14:21:53.834Z,54.20
2019-05-05T14:24:24.422Z,54.50
2019-05-05T14:26:54.214Z,54.10
2019-05-05T14:29:36.712Z,54.00
2019-05-05T14:32:06.908Z,54.00
2019-05-05T14:34:37.361Z,53.60
2019-05-05T14:37:24.810Z,54.20
2019-05-05T14:39:54.516Z,54.90
2019-05-05T14:42:23.536Z,54.80
2019-05-05T14:44:54.372Z,55.50
2019-05-05T14:47:24.491Z,54.20
2019-05-05T14:49:54.176Z,53.80
2019-05-05T14:52:24.527Z,53.60
2019-05-05T14:54:54.403Z,54.00
2019-05-05T14:57:25.145Z,54.20
2019-05-05T14:59:55.721Z,54.60
2019-05-05T15:02:24.689Z,56.00
2019-05-05T15:04:55.091Z,55.20
2019-05-05T15:07:31.509Z,52.50
2019-05-05T15:10:04.155Z,52.90
2019-05-05T15:12:35.639Z,52.50
2019-05-05T15:15:07.340Z,53.40
2019-05-05T15:17:38.064Z,54.10
2019-05-05T15:20:08.002Z,52.70
2019-05-05T15:22:36.749Z,51.20
2019-05-05T15:25:06.703Z,52.10
2019-05-05T15:27:35.635Z,49.90
2019-05-05T15:30:07.225Z,49.30
2019-05-05T15:32:36.073Z,49.00
2019-05-05T15:35:06.442Z,48.10
2019-05-05T15:37:35.292Z,48.30
2019-05-05T15:40:05.115Z,48.90
2019-05-05T15:42:33.541Z,49.70
2019-05-05T15:45:03.996Z,49.60
2019-05-05T15:47:34.323Z,48.50
2019-05-05T15:50:05.286Z,47.90
2019-05-05T15:52:35.178Z,50.40
2019-05-05T15:55:06.408Z,48.40
2019-05-05T15:57:35.317Z,48.30
2019-05-05T16:00:05.862Z,48.40
2019-05-05T16:02:36.632Z,47.80
2019-05-05T16:05:08.952Z,48.10
2019-05-05T16:07:37.741Z,50.20
2019-05-05T16:10:07.570Z,47.70
2019-05-05T16:12:39.337Z,49.10
2019-05-05T16:15:28.299Z,48.20
2019-05-05T16:18:01.550Z,49.30
2019-05-05T16:20:33.275Z,49.30
2019-05-05T16:23:04.061Z,49.10
2019-05-05T16:25:33.893Z,49.60
2019-05-05T16:28:05.510Z,49.70
2019-05-05T16:30:34.747Z,50.40
2019-05-05T16:33:04.239Z,49.50
2019-05-05T16:35:34.260Z,51.00
2019-05-05T16:38:06.369Z,50.20
2019-05-05T16:40:33.914Z,51.20
2019-05-05T16:43:04.592Z,50.00
2019-05-05T16:45:34.017Z,49.90
2019-05-05T16:48:03.916Z,49.80
2019-05-05T16:50:34.083Z,51.10
2019-05-05T16:53:06.605Z,51.90
2019-05-05T16:55:37.137Z,50.90
2019-05-05T16:58:06.774Z,51.00
2019-05-05T17:00:35.754Z,51.30
2019-05-05T17:03:04.654Z,50.40
2019-05-05T17:05:35.173Z,50.30
2019-05-05T17:08:04.513Z,50.50
2019-05-05T17:10:34.291Z,50.90
2019-05-05T17:13:04.896Z,52.00
2019-05-05T17:15:36.539Z,51.50
2019-05-05T17:18:33.005Z,51.50
2019-05-05T17:21:04.217Z,51.00
2019-05-05T17:23:34.167Z,51.50
2019-05-05T17:26:04.985Z,52.00
2019-05-05T17:28:33.723Z,51.50
2019-05-05T17:31:02.551Z,50.90
2019-05-05T17:33:31.349Z,51.00
2019-05-05T17:36:00.986Z,51.60
2019-05-05T17:38:31.580Z,51.50
2019-05-05T17:41:16.968Z,51.80
2019-05-05T17:43:47.416Z,51.90
2019-05-05T17:46:21.939Z,51.70
2019-05-05T17:48:53.857Z,51.40
2019-05-05T17:51:31.221Z,51.20
2019-05-05T17:54:03.545Z,52.50
2019-05-05T17:56:33.598Z,53.00
2019-05-05T17:59:03.604Z,53.60
2019-05-05T18:01:33.629Z,52.90
2019-05-05T18:04:04.133Z,53.20
2019-05-05T18:06:34.765Z,52.00
2019-05-05T18:09:17.098Z,50.90
2019-05-05T18:11:53.607Z,51.60
2019-05-05T18:14:24.166Z,51.60
2019-05-05T18:16:54.213Z,51.00
2019-05-05T18:19:25.095Z,51.20
2019-05-05T18:21:54.802Z,51.80
2019-05-05T18:24:24.331Z,51.80
2019-05-05T18:26:53.815Z,52.60
2019-05-05T18:29:24.272Z,51.70
2019-05-05T18:31:53.576Z,51.60
2019-05-05T18:34:23.542Z,52.20
2019-05-05T18:36:54.471Z,51.10
2019-05-05T18:39:24.710Z,51.50
2019-05-05T18:41:58.138Z,50.20
2019-05-05T18:44:34.707Z,50.40
2019-05-05T18:47:14.889Z,52.20
2019-05-05T18:49:42.939Z,52.40
2019-05-05T18:52:10.849Z,52.10
2019-05-05T18:54:39.763Z,53.90
2019-05-05T18:57:09.400Z,53.30
2019-05-05T18:59:38.485Z,53.80
2019-05-05T19:02:14.277Z,54.70
2019-05-05T19:04:58.251Z,55.80
2019-05-05T19:07:54.869Z,54.60
2019-05-05T19:10:15.950Z,55.50
2019-05-05T19:12:45.771Z,55.50
2019-05-05T19:15:13.725Z,56.60
2019-05-05T19:17:42.580Z,57.00
2019-05-05T19:20:14.664Z,56.30
2019-05-05T19:22:45.092Z,57.00
2019-05-05T19:25:16.727Z,56.90
2019-05-05T19:27:48.595Z,56.50
2019-05-05T19:30:18.235Z,53.30
2019-05-05T19:32:47.114Z,57.20
2019-05-05T19:35:15.835Z,58.30
2019-05-05T19:37:44.690Z,56.50
2019-05-05T19:40:15.890Z,56.80
2019-05-05T19:42:46.332Z,57.00
2019-05-05T19:45:15.449Z,57.20
2019-05-05T19:47:44.208Z,56.80
2019-05-05T19:50:21.633Z,57.90
2019-05-05T19:52:50.619Z,57.60
2019-05-05T19:55:21.328Z,57.90
2019-05-05T19:57:50.565Z,58.30
2019-05-05T20:00:20.649Z,59.40
2019-05-05T20:03:01.433Z,58.80
2019-05-05T20:05:21.697Z,58.10
2019-05-05T20:07:52.360Z,58.90
2019-05-05T20:10:21.247Z,59.30
2019-05-05T20:12:50.141Z,58.90
2019-05-05T20:15:23.478Z,59.50
2019-05-05T20:17:53.905Z,59.30
2019-05-05T20:20:23.983Z,59.70
2019-05-05T20:22:54.675Z,59.20
2019-05-05T20:25:24.383Z,59.60
2019-05-05T20:27:55.732Z,59.00
2019-05-05T20:30:24.702Z,58.80
2019-05-05T20:33:04.070Z,58.50
2019-05-05T20:35:35.789Z,52.70
2019-05-05T20:38:21.231Z,57.50
2019-05-05T20:41:08.445Z,58.10
2019-05-05T20:43:37.309Z,59.40
2019-05-05T20:46:07.272Z,59.60
2019-05-05T20:48:36.122Z,59.40
2019-05-05T20:51:07.131Z,60.00
2019-05-05T20:53:35.950Z,59.40
2019-05-05T20:56:04.964Z,59.70
2019-05-05T20:58:33.810Z,60.50
2019-05-05T21:01:04.614Z,59.90
2019-05-05T21:03:34.744Z,60.60
2019-05-05T21:06:04.354Z,60.20
2019-05-05T21:08:34.601Z,61.10
2019-05-05T21:11:04.405Z,60.90
2019-05-05T21:13:34.090Z,62.30
2019-05-05T21:16:03.182Z,61.90
2019-05-05T21:18:31.942Z,60.80
2019-05-05T21:21:04.375Z,61.20
2019-05-05T21:23:35.921Z,62.00
2019-05-05T21:26:10.559Z,61.80
2019-05-05T21:28:42.040Z,62.50
2019-05-05T21:31:10.905Z,63.20
2019-05-05T21:33:40.988Z,63.70
2019-05-05T21:36:12.522Z,63.20
2019-05-05T21:38:43.941Z,62.40
2019-05-05T21:41:13.844Z,61.60
2019-05-05T21:43:44.673Z,61.00
2019-05-05T21:46:15.028Z,61.00
2019-05-05T21:48:44.865Z,60.20
2019-05-05T21:51:24.194Z,63.40
2019-05-05T21:53:54.700Z,61.80
2019-05-05T21:56:42.907Z,61.20
2019-05-05T21:59:14.121Z,60.40
2019-05-05T22:01:48.444Z,60.70
2019-05-05T22:04:14.643Z,60.00
2019-05-05T22:06:43.075Z,60.20
2019-05-05T22:09:11.760Z,60.00
2019-05-05T22:11:40.656Z,59.70
2019-05-05T22:14:09.410Z,62.20
2019-05-05T22:16:38.234Z,63.10
2019-05-05T22:19:08.075Z,63.50
2019-05-05T22:21:37.609Z,64.80
2019-05-05T22:24:15.748Z,63.60
2019-05-05T22:26:44.774Z,65.40
2019-05-05T22:29:16.809Z,65.50
2019-05-05T22:31:46.258Z,66.40
2019-05-05T22:34:14.815Z,67.50
2019-05-05T22:36:45.648Z,68.30
2019-05-05T22:39:16.848Z,68.30
2019-05-05T22:41:44.951Z,68.70
2019-05-05T22:44:14.032Z,68.60
2019-05-05T22:46:43.249Z,69.30
2019-05-05T22:49:12.166Z,70.20
2019-05-05T22:51:40.966Z,69.70
2019-05-05T22:54:09.723Z,70.30
2019-05-05T22:56:39.685Z,71.10
2019-05-05T22:59:08.556Z,71.50
2019-05-05T23:01:37.405Z,72.00
2019-05-05T23:04:19.700Z,71.90
2019-05-05T23:06:59.365Z,72.20
2019-05-05T23:09:28.189Z,72.10
2019-05-05T23:11:57.931Z,72.50
2019-05-05T23:14:29.680Z,71.80
2019-05-05T23:17:11.502Z,72.10
2019-05-05T23:19:45.073Z,71.50
2019-05-05T23:22:15.912Z,71.70
2019-05-05T23:25:04.117Z,72.10
2019-05-05T23:27:49.145Z,72.60
2019-05-05T23:30:23.785Z,72.50
2019-05-05T23:32:54.625Z,72.50
2019-05-05T23:35:23.930Z,73.30
2019-05-05T23:37:55.060Z,72.90
2019-05-05T23:40:26.194Z,74.00
2019-05-05T23:42:55.223Z,74.40
2019-05-05T23:45:25.041Z,73.90
2019-05-05T23:47:55.731Z,74.10
2019-05-05T23:50:24.846Z,74.60
2019-05-05T23:52:55.499Z,73.40
2019-05-05T23:55:24.388Z,74.40
2019-05-05T23:57:54.790Z,75.70
